sensor_id;sensor_type;location;lat;lon;timestamp;pressure;altitude;pressure_sealevel;temperature;humidity
71764;BME280;59602;52.142;5.408;2023-02-11T00:00:13;103539.22;;;6.18;91.24
71764;BME280;59602;52.142;5.408;2023-02-11T00:02:40;103546.53;;;6.17;91.26
71764;BME280;59602;52.142;5.408;2023-02-11T00:05:07;103533.81;;;6.18;91.26
71764;BME280;59602;52.142;5.408;2023-02-11T00:07:34;103523.81;;;6.18;91.24
71764;BME280;59602;52.142;5.408;2023-02-11T00:10:01;103524.13;;;6.17;91.41
71764;BME280;59602;52.142;5.408;2023-02-11T00:12:28;103524.38;;;6.15;91.37
71764;BME280;59602;52.142;5.408;2023-02-11T00:14:55;103520.09;;;6.14;91.87
71764;BME280;59602;52.142;5.408;2023-02-11T00:17:22;103519.25;;;6.14;91.64
71764;BME280;59602;52.142;5.408;2023-02-11T00:19:50;103521.97;;;6.14;91.67
71764;BME280;59602;52.142;5.408;2023-02-11T00:22:17;103514.97;;;6.13;91.49
71764;BME280;59602;52.142;5.408;2023-02-11T00:24:44;103522.78;;;6.14;91.47
71764;BME280;59602;52.142;5.408;2023-02-11T00:27:11;103520.09;;;6.14;91.63
71764;BME280;59602;52.142;5.408;2023-02-11T00:29:37;103524.66;;;6.14;91.52
71764;BME280;59602;52.142;5.408;2023-02-11T00:32:05;103526.56;;;6.13;91.79
71764;BME280;59602;52.142;5.408;2023-02-11T00:34:33;103530.91;;;6.14;91.94
71764;BME280;59602;52.142;5.408;2023-02-11T00:37:00;103524.66;;;6.14;91.83
71764;BME280;59602;52.142;5.408;2023-02-11T00:39:27;103523.59;;;6.15;91.69
71764;BME280;59602;52.142;5.408;2023-02-11T00:41:54;103525.50;;;6.14;91.64
71764;BME280;59602;52.142;5.408;2023-02-11T00:44:20;103527.09;;;6.15;91.53
71764;BME280;59602;52.142;5.408;2023-02-11T00:46:47;103524.97;;;6.12;91.60
71764;BME280;59602;52.142;5.408;2023-02-11T00:49:14;103535.47;;;6.14;92.05
71764;BME280;59602;52.142;5.408;2023-02-11T00:51:40;103521.47;;;6.12;91.75
71764;BME280;59602;52.142;5.408;2023-02-11T00:54:07;103526.03;;;6.11;91.92
71764;BME280;59602;52.142;5.408;2023-02-11T00:56:34;103530.63;;;6.11;91.96
71764;BME280;59602;52.142;5.408;2023-02-11T00:59:02;103522.53;;;6.11;91.86
71764;BME280;59602;52.142;5.408;2023-02-11T01:01:28;103517.13;;;6.11;91.76
71764;BME280;59602;52.142;5.408;2023-02-11T01:03:55;103510.41;;;6.08;92.28
71764;BME280;59602;52.142;5.408;2023-02-11T01:06:21;103508.50;;;6.09;92.02
71764;BME280;59602;52.142;5.408;2023-02-11T01:08:48;103497.69;;;6.09;92.30
71764;BME280;59602;52.142;5.408;2023-02-11T01:11:18;103494.47;;;6.07;92.13
71764;BME280;59602;52.142;5.408;2023-02-11T01:13:46;103497.47;;;6.05;92.11
71764;BME280;59602;52.142;5.408;2023-02-11T01:16:13;103499.66;;;6.03;92.25
71764;BME280;59602;52.142;5.408;2023-02-11T01:18:40;103504.78;;;5.99;91.84
71764;BME280;59602;52.142;5.408;2023-02-11T01:21:09;103490.50;;;5.99;92.29
71764;BME280;59602;52.142;5.408;2023-02-11T01:23:36;103475.66;;;5.96;92.16
71764;BME280;59602;52.142;5.408;2023-02-11T01:26:03;103474.59;;;5.92;92.21
71764;BME280;59602;52.142;5.408;2023-02-11T01:28:30;103471.59;;;5.94;92.11
71764;BME280;59602;52.142;5.408;2023-02-11T01:30:57;103475.13;;;5.89;92.18
71764;BME280;59602;52.142;5.408;2023-02-11T01:33:26;103477.59;;;5.86;92.50
71764;BME280;59602;52.142;5.408;2023-02-11T01:35:53;103495.13;;;5.88;92.25
71764;BME280;59602;52.142;5.408;2023-02-11T01:38:22;103506.72;;;5.89;92.73
71764;BME280;59602;52.142;5.408;2023-02-11T01:40:55;103515.88;;;5.93;92.79
71764;BME280;59602;52.142;5.408;2023-02-11T01:43:23;103516.44;;;5.95;92.63
71764;BME280;59602;52.142;5.408;2023-02-11T01:45:56;103521.03;;;5.94;92.27
71764;BME280;59602;52.142;5.408;2023-02-11T01:48:29;103520.75;;;5.96;92.62
71764;BME280;59602;52.142;5.408;2023-02-11T01:51:03;103505.66;;;5.95;92.59
71764;BME280;59602;52.142;5.408;2023-02-11T01:53:33;103504.84;;;5.94;92.34
71764;BME280;59602;52.142;5.408;2023-02-11T01:56:20;103505.09;;;5.93;92.49
71764;BME280;59602;52.142;5.408;2023-02-11T01:59:13;103514.28;;;5.92;92.25
71764;BME280;59602;52.142;5.408;2023-02-11T02:01:46;103515.09;;;5.87;92.43
71764;BME280;59602;52.142;5.408;2023-02-11T02:04:16;103518.91;;;5.86;92.34
71764;BME280;59602;52.142;5.408;2023-02-11T02:06:49;103512.97;;;5.84;92.88
71764;BME280;59602;52.142;5.408;2023-02-11T02:09:22;103517.56;;;5.83;92.57
71764;BME280;59602;52.142;5.408;2023-02-11T02:11:50;103519.47;;;5.83;92.43
71764;BME280;59602;52.142;5.408;2023-02-11T02:14:17;103515.94;;;5.82;92.68
71764;BME280;59602;52.142;5.408;2023-02-11T02:16:44;103509.75;;;5.82;92.91
71764;BME280;59602;52.142;5.408;2023-02-11T02:19:29;103508.16;;;5.81;92.51
71764;BME280;59602;52.142;5.408;2023-02-11T02:22:46;103506.81;;;5.78;92.75
71764;BME280;59602;52.142;5.408;2023-02-11T02:25:36;103508.41;;;5.79;93.21
71764;BME280;59602;52.142;5.408;2023-02-11T02:28:14;103499.00;;;5.77;93.01
71764;BME280;59602;52.142;5.408;2023-02-11T02:30:52;103495.75;;;5.75;92.54
71764;BME280;59602;52.142;5.408;2023-02-11T02:38:37;103489.34;;;5.66;92.95
71764;BME280;59602;52.142;5.408;2023-02-11T02:41:12;103482.06;;;5.66;92.73
71764;BME280;59602;52.142;5.408;2023-02-11T02:43:41;103485.56;;;5.67;92.74
71764;BME280;59602;52.142;5.408;2023-02-11T02:46:13;103476.66;;;5.66;93.08
71764;BME280;59602;52.142;5.408;2023-02-11T02:48:41;103476.66;;;5.66;92.89
71764;BME280;59602;52.142;5.408;2023-02-11T02:51:24;103482.59;;;5.68;93.06
71764;BME280;59602;52.142;5.408;2023-02-11T02:56:43;103485.84;;;5.65;93.23
71764;BME280;59602;52.142;5.408;2023-02-11T02:59:39;103492.03;;;5.66;93.42
71764;BME280;59602;52.142;5.408;2023-02-11T03:02:21;103487.19;;;5.68;93.47
71764;BME280;59602;52.142;5.408;2023-02-11T03:04:56;103482.59;;;5.68;93.52
71764;BME280;59602;52.142;5.408;2023-02-11T03:07:34;103474.75;;;5.67;93.11
71764;BME280;59602;52.142;5.408;2023-02-11T03:10:11;103477.75;;;5.65;93.27
71764;BME280;59602;52.142;5.408;2023-02-11T03:12:41;103478.28;;;5.67;93.39
71764;BME280;59602;52.142;5.408;2023-02-11T03:15:10;103480.97;;;5.67;93.36
71764;BME280;59602;52.142;5.408;2023-02-11T03:17:41;103469.88;;;5.69;93.40
71764;BME280;59602;52.142;5.408;2023-02-11T03:20:12;103462.09;;;5.67;93.38
71764;BME280;59602;52.142;5.408;2023-02-11T03:22:52;103456.44;;;5.64;93.53
71764;BME280;59602;52.142;5.408;2023-02-11T03:25:28;103458.03;;;5.65;93.88
71764;BME280;59602;52.142;5.408;2023-02-11T03:28:08;103447.53;;;5.63;93.83
71764;BME280;59602;52.142;5.408;2023-02-11T03:30:42;103447.53;;;5.63;94.10
71764;BME280;59602;52.142;5.408;2023-02-11T03:33:19;103446.72;;;5.62;94.18
71764;BME280;59602;52.142;5.408;2023-02-11T03:35:54;103444.31;;;5.61;94.20
71764;BME280;59602;52.142;5.408;2023-02-11T03:38:29;103452.94;;;5.58;94.20
71764;BME280;59602;52.142;5.408;2023-02-11T03:40:59;103452.16;;;5.57;94.12
71764;BME280;59602;52.142;5.408;2023-02-11T03:43:32;103450.56;;;5.56;94.02
71764;BME280;59602;52.142;5.408;2023-02-11T03:46:00;103435.72;;;5.54;94.39
71764;BME280;59602;52.142;5.408;2023-02-11T03:48:32;103425.19;;;5.52;94.53
71764;BME280;59602;52.142;5.408;2023-02-11T03:51:02;103424.09;;;5.53;94.49
71764;BME280;59602;52.142;5.408;2023-02-11T03:53:29;103428.97;;;5.51;94.20
71764;BME280;59602;52.142;5.408;2023-02-11T03:55:59;103444.38;;;5.51;94.61
71764;BME280;59602;52.142;5.408;2023-02-11T03:58:26;103448.97;;;5.50;94.73
71764;BME280;59602;52.142;5.408;2023-02-11T04:00:53;103446.00;;;5.52;94.33
71764;BME280;59602;52.142;5.408;2023-02-11T04:03:19;103446.78;;;5.52;95.01
71764;BME280;59602;52.142;5.408;2023-02-11T04:05:46;103458.97;;;5.50;95.13
71764;BME280;59602;52.142;5.408;2023-02-11T04:08:14;103458.16;;;5.49;94.79
71764;BME280;59602;52.142;5.408;2023-02-11T04:10:41;103456.25;;;5.50;94.81
71764;BME280;59602;52.142;5.408;2023-02-11T04:13:07;103455.97;;;5.51;94.90
71764;BME280;59602;52.142;5.408;2023-02-11T04:15:34;103453.78;;;5.53;95.01
71764;BME280;59602;52.142;5.408;2023-02-11T04:18:00;103455.13;;;5.56;95.25
71764;BME280;59602;52.142;5.408;2023-02-11T04:20:28;103458.88;;;5.60;95.02
71764;BME280;59602;52.142;5.408;2023-02-11T04:22:55;103463.47;;;5.59;95.35
71764;BME280;59602;52.142;5.408;2023-02-11T04:25:22;103467.81;;;5.60;95.56
71764;BME280;59602;52.142;5.408;2023-02-11T04:27:48;103462.91;;;5.62;95.52
71764;BME280;59602;52.142;5.408;2023-02-11T04:30:15;103471.53;;;5.65;95.71
71764;BME280;59602;52.142;5.408;2023-02-11T04:32:41;103468.81;;;5.65;95.45
71764;BME280;59602;52.142;5.408;2023-02-11T04:35:08;103469.66;;;5.65;95.73
71764;BME280;59602;52.142;5.408;2023-02-11T04:37:35;103473.69;;;5.68;95.52
71764;BME280;59602;52.142;5.408;2023-02-11T04:40:01;103471.78;;;5.68;95.68
71764;BME280;59602;52.142;5.408;2023-02-11T04:42:28;103471.78;;;5.68;95.86
71764;BME280;59602;52.142;5.408;2023-02-11T04:44:56;103470.97;;;5.68;95.52
71764;BME280;59602;52.142;5.408;2023-02-11T04:47:22;103469.59;;;5.70;95.70
71764;BME280;59602;52.142;5.408;2023-02-11T04:49:49;103477.44;;;5.72;96.08
71764;BME280;59602;52.142;5.408;2023-02-11T04:52:15;103476.34;;;5.73;95.87
71764;BME280;59602;52.142;5.408;2023-02-11T04:54:43;103474.16;;;5.75;96.09
71764;BME280;59602;52.142;5.408;2023-02-11T04:57:10;103471.75;;;5.73;96.00
71764;BME280;59602;52.142;5.408;2023-02-11T04:59:36;103474.16;;;5.75;95.82
71764;BME280;59602;52.142;5.408;2023-02-11T05:02:03;103474.97;;;5.75;95.94
71764;BME280;59602;52.142;5.408;2023-02-11T05:04:31;103462.28;;;5.76;95.71
71764;BME280;59602;52.142;5.408;2023-02-11T05:06:57;103477.41;;;5.77;95.99
71764;BME280;59602;52.142;5.408;2023-02-11T05:09:25;103468.19;;;5.78;96.09
71764;BME280;59602;52.142;5.408;2023-02-11T05:11:51;103486.81;;;5.79;96.08
71764;BME280;59602;52.142;5.408;2023-02-11T05:14:20;103476.81;;;5.80;95.88
71764;BME280;59602;52.142;5.408;2023-02-11T05:16:46;103470.34;;;5.81;96.13
71764;BME280;59602;52.142;5.408;2023-02-11T05:19:13;103473.06;;;5.81;96.13
71764;BME280;59602;52.142;5.408;2023-02-11T05:21:39;103468.97;;;5.83;95.88
71764;BME280;59602;52.142;5.408;2023-02-11T05:24:22;103469.25;;;5.82;96.43
71764;BME280;59602;52.142;5.408;2023-02-11T05:26:48;103477.06;;;5.83;96.02
71764;BME280;59602;52.142;5.408;2023-02-11T05:29:15;103475.44;;;5.82;96.38
71764;BME280;59602;52.142;5.408;2023-02-11T05:31:41;103476.81;;;5.85;96.35
71764;BME280;59602;52.142;5.408;2023-02-11T05:34:08;103481.63;;;5.88;96.27
71764;BME280;59602;52.142;5.408;2023-02-11T05:36:34;103477.84;;;5.89;96.83
71764;BME280;59602;52.142;5.408;2023-02-11T05:39:02;103467.03;;;5.89;96.47
71764;BME280;59602;52.142;5.408;2023-02-11T05:41:28;103465.69;;;5.92;96.62
71764;BME280;59602;52.142;5.408;2023-02-11T05:43:55;103463.78;;;5.92;96.33
71764;BME280;59602;52.142;5.408;2023-02-11T05:46:21;103463.78;;;5.92;96.20
71764;BME280;59602;52.142;5.408;2023-02-11T05:48:48;103458.38;;;5.92;96.87
71764;BME280;59602;52.142;5.408;2023-02-11T05:51:15;103462.69;;;5.93;96.70
71764;BME280;59602;52.142;5.408;2023-02-11T05:53:41;103464.03;;;5.96;96.74
71764;BME280;59602;52.142;5.408;2023-02-11T05:56:09;103471.59;;;5.99;96.73
71764;BME280;59602;52.142;5.408;2023-02-11T05:58:36;103469.41;;;6.01;96.71
71764;BME280;59602;52.142;5.408;2023-02-11T06:01:04;103470.22;;;6.01;96.63
71764;BME280;59602;52.142;5.408;2023-02-11T06:03:30;103478.59;;;6.00;96.52
71764;BME280;59602;52.142;5.408;2023-02-11T06:05:57;103468.59;;;6.00;96.79
71764;BME280;59602;52.142;5.408;2023-02-11T06:08:23;103477.22;;;6.02;96.55
71764;BME280;59602;52.142;5.408;2023-02-11T06:10:50;103479.91;;;6.02;96.69
71764;BME280;59602;52.142;5.408;2023-02-11T06:13:18;103490.44;;;6.04;96.71
71764;BME280;59602;52.142;5.408;2023-02-11T06:15:54;103485.84;;;6.05;96.79
71764;BME280;59602;52.142;5.408;2023-02-11T06:18:22;103488.53;;;6.05;97.00
71764;BME280;59602;52.142;5.408;2023-02-11T06:20:48;103489.88;;;6.07;96.80
71764;BME280;59602;52.142;5.408;2023-02-11T06:23:15;103485.00;;;6.09;96.69
71764;BME280;59602;52.142;5.408;2023-02-11T06:25:42;103487.94;;;6.13;97.15
71764;BME280;59602;52.142;5.408;2023-02-11T06:28:08;103488.75;;;6.13;97.30
71764;BME280;59602;52.142;5.408;2023-02-11T06:30:36;103483.88;;;6.15;97.26
71764;BME280;59602;52.142;5.408;2023-02-11T06:33:04;103478.19;;;6.17;97.62
71764;BME280;59602;52.142;5.408;2023-02-11T06:35:33;103484.41;;;6.17;97.07
71764;BME280;59602;52.142;5.408;2023-02-11T06:38:00;103481.13;;;6.20;97.65
71764;BME280;59602;52.142;5.408;2023-02-11T06:40:27;103484.34;;;6.22;97.76
71764;BME280;59602;52.142;5.408;2023-02-11T06:42:54;103478.09;;;6.27;97.76
71764;BME280;59602;52.142;5.408;2023-02-11T06:45:20;103469.97;;;6.27;97.56
71764;BME280;59602;52.142;5.408;2023-02-11T06:47:47;103467.81;;;6.29;97.49
71764;BME280;59602;52.142;5.408;2023-02-11T06:50:16;103467.81;;;6.29;97.43
71764;BME280;59602;52.142;5.408;2023-02-11T06:52:42;103477.22;;;6.32;97.71
71764;BME280;59602;52.142;5.408;2023-02-11T06:55:10;103472.66;;;6.32;97.68
71764;BME280;59602;52.142;5.408;2023-02-11T06:57:39;103479.66;;;6.33;97.73
71764;BME280;59602;52.142;5.408;2023-02-11T07:00:06;103482.34;;;6.33;97.72
71764;BME280;59602;52.142;5.408;2023-02-11T07:02:32;103481.56;;;6.33;97.92
71764;BME280;59602;52.142;5.408;2023-02-11T07:04:59;103484.25;;;6.33;97.77
71764;BME280;59602;52.142;5.408;2023-02-11T07:07:27;103492.63;;;6.36;97.72
71764;BME280;59602;52.142;5.408;2023-02-11T07:09:53;103494.22;;;6.37;97.73
71764;BME280;59602;52.142;5.408;2023-02-11T07:12:20;103497.44;;;6.39;98.04
71764;BME280;59602;52.142;5.408;2023-02-11T07:14:46;103502.03;;;6.39;97.90
71764;BME280;59602;52.142;5.408;2023-02-11T07:17:13;103499.03;;;6.40;97.87
71764;BME280;59602;52.142;5.408;2023-02-11T07:19:40;103499.03;;;6.40;97.74
71764;BME280;59602;52.142;5.408;2023-02-11T07:22:07;103500.66;;;6.41;97.89
71764;BME280;59602;52.142;5.408;2023-02-11T07:24:33;103506.88;;;6.42;97.91
71764;BME280;59602;52.142;5.408;2023-02-11T07:27:00;103506.59;;;6.43;98.16
71764;BME280;59602;52.142;5.408;2023-02-11T07:29:26;103511.69;;;6.45;97.75
71764;BME280;59602;52.142;5.408;2023-02-11T07:31:53;103520.63;;;6.46;98.07
71764;BME280;59602;52.142;5.408;2023-02-11T07:34:21;103518.47;;;6.48;98.27
71764;BME280;59602;52.142;5.408;2023-02-11T07:36:47;103518.94;;;6.50;98.43
71764;BME280;59602;52.142;5.408;2023-02-11T07:39:15;103524.59;;;6.53;98.24
71764;BME280;59602;52.142;5.408;2023-02-11T07:41:42;103523.53;;;6.54;98.35
71764;BME280;59602;52.142;5.408;2023-02-11T07:44:09;103532.13;;;6.56;97.94
71764;BME280;59602;52.142;5.408;2023-02-11T07:46:36;103531.56;;;6.59;98.11
71764;BME280;59602;52.142;5.408;2023-02-11T07:49:02;103537.78;;;6.60;98.15
71764;BME280;59602;52.142;5.408;2023-02-11T07:51:30;103533.69;;;6.62;98.08
71764;BME280;59602;52.142;5.408;2023-02-11T07:53:58;103529.91;;;6.63;97.92
71764;BME280;59602;52.142;5.408;2023-02-11T07:56:25;103523.41;;;6.64;97.95
71764;BME280;59602;52.142;5.408;2023-02-11T07:58:52;103525.56;;;6.68;98.33
71764;BME280;59602;52.142;5.408;2023-02-11T08:01:22;103522.56;;;6.69;97.87
71764;BME280;59602;52.142;5.408;2023-02-11T08:03:51;103527.97;;;6.69;97.76
71764;BME280;59602;52.142;5.408;2023-02-11T08:06:20;103531.19;;;6.71;97.82
71764;BME280;59602;52.142;5.408;2023-02-11T08:08:47;103530.91;;;6.73;97.82
71764;BME280;59602;52.142;5.408;2023-02-11T08:11:16;103536.84;;;6.75;97.93
71764;BME280;59602;52.142;5.408;2023-02-11T08:13:43;103534.13;;;6.75;97.93
71764;BME280;59602;52.142;5.408;2023-02-11T08:18:46;103538.16;;;6.77;97.65
71764;BME280;59602;52.142;5.408;2023-02-11T08:21:12;103534.34;;;6.78;97.55
71764;BME280;59602;52.142;5.408;2023-02-11T08:23:40;103531.94;;;6.77;97.63
71764;BME280;59602;52.142;5.408;2023-02-11T08:26:11;103528.16;;;6.78;97.83
71764;BME280;59602;52.142;5.408;2023-02-11T08:28:39;103541.06;;;6.81;97.59
71764;BME280;59602;52.142;5.408;2023-02-11T08:31:12;103534.88;;;6.80;97.59
71764;BME280;59602;52.142;5.408;2023-02-11T08:33:39;103540.00;;;6.82;97.66
71764;BME280;59602;52.142;5.408;2023-02-11T08:36:08;103548.63;;;6.84;97.66
71764;BME280;59602;52.142;5.408;2023-02-11T08:38:35;103542.94;;;6.85;97.56
71764;BME280;59602;52.142;5.408;2023-02-11T08:41:02;103551.88;;;6.86;97.18
71764;BME280;59602;52.142;5.408;2023-02-11T08:43:28;103552.06;;;6.90;97.37
71764;BME280;59602;52.142;5.408;2023-02-11T08:45:55;103554.50;;;6.91;97.60
71764;BME280;59602;52.142;5.408;2023-02-11T08:48:22;103553.13;;;6.94;97.65
71764;BME280;59602;52.142;5.408;2023-02-11T08:50:49;103546.31;;;6.96;97.24
71764;BME280;59602;52.142;5.408;2023-02-11T08:53:17;103551.47;;;6.98;97.35
71764;BME280;59602;52.142;5.408;2023-02-11T08:55:48;103554.69;;;7.00;97.15
71764;BME280;59602;52.142;5.408;2023-02-11T08:58:16;103557.13;;;7.01;97.16
71764;BME280;59602;52.142;5.408;2023-02-11T09:00:44;103566.28;;;7.05;97.21
71764;BME280;59602;52.142;5.408;2023-02-11T09:03:12;103564.06;;;7.07;97.19
71764;BME280;59602;52.142;5.408;2023-02-11T09:05:47;103565.41;;;7.10;96.86
71764;BME280;59602;52.142;5.408;2023-02-11T09:08:15;103566.72;;;7.13;96.90
71764;BME280;59602;52.142;5.408;2023-02-11T09:10:42;103576.16;;;7.15;97.01
71764;BME280;59602;52.142;5.408;2023-02-11T09:13:09;103576.69;;;7.17;96.60
71764;BME280;59602;52.142;5.408;2023-02-11T09:15:36;103582.03;;;7.22;96.58
71764;BME280;59602;52.142;5.408;2023-02-11T09:18:03;103583.34;;;7.25;96.78
71764;BME280;59602;52.142;5.408;2023-02-11T09:20:30;103584.66;;;7.27;96.89
71764;BME280;59602;52.142;5.408;2023-02-11T09:22:57;103587.63;;;7.31;96.62
71764;BME280;59602;52.142;5.408;2023-02-11T09:25:25;103590.84;;;7.33;96.41
71764;BME280;59602;52.142;5.408;2023-02-11T09:27:51;103598.38;;;7.36;96.17
71764;BME280;59602;52.142;5.408;2023-02-11T09:30:19;103585.34;;;7.38;96.38
71764;BME280;59602;52.142;5.408;2023-02-11T09:32:46;103587.50;;;7.41;96.48
71764;BME280;59602;52.142;5.408;2023-02-11T09:35:12;103593.13;;;7.45;96.48
71764;BME280;59602;52.142;5.408;2023-02-11T09:37:39;103592.03;;;7.46;95.97
71764;BME280;59602;52.142;5.408;2023-02-11T09:40:06;103594.97;;;7.49;95.81
71764;BME280;59602;52.142;5.408;2023-02-11T09:42:44;103594.69;;;7.51;95.76
71764;BME280;59602;52.142;5.408;2023-02-11T09:45:23;103602.72;;;7.56;95.58
71764;BME280;59602;52.142;5.408;2023-02-11T09:47:55;103604.56;;;7.61;95.76
71764;BME280;59602;52.142;5.408;2023-02-11T09:50:29;103599.66;;;7.63;95.37
71764;BME280;59602;52.142;5.408;2023-02-11T09:53:01;103601.81;;;7.66;95.24
71764;BME280;59602;52.142;5.408;2023-02-11T09:55:32;103610.44;;;7.68;95.05
71764;BME280;59602;52.142;5.408;2023-02-11T09:58:09;103608.75;;;7.72;95.15
71764;BME280;59602;52.142;5.408;2023-02-11T10:00:50;103620.91;;;7.75;94.84
71764;BME280;59602;52.142;5.408;2023-02-11T10:06:34;103632.50;;;7.80;94.60
71764;BME280;59602;52.142;5.408;2023-02-11T10:12:00;103630.53;;;7.86;94.26
71764;BME280;59602;52.142;5.408;2023-02-11T10:17:13;103642.88;;;7.92;93.97
71764;BME280;59602;52.142;5.408;2023-02-11T10:19:58;103635.00;;;7.96;93.86
71764;BME280;59602;52.142;5.408;2023-02-11T10:22:34;103646.56;;;8.01;93.62
71764;BME280;59602;52.142;5.408;2023-02-11T10:25:16;103642.69;;;8.07;93.50
71764;BME280;59602;52.142;5.408;2023-02-11T10:27:44;103645.81;;;8.15;93.17
71764;BME280;59602;52.142;5.408;2023-02-11T10:30:34;103654.41;;;8.22;93.12
71764;BME280;59602;52.142;5.408;2023-02-11T10:33:12;103661.88;;;8.30;93.17
71764;BME280;59602;52.142;5.408;2023-02-11T10:35:40;103666.72;;;8.33;92.82
71764;BME280;59602;52.142;5.408;2023-02-11T10:38:10;103659.59;;;8.37;92.41
71764;BME280;59602;52.142;5.408;2023-02-11T10:40:37;103660.94;;;8.40;92.16
71764;BME280;59602;52.142;5.408;2023-02-11T10:43:09;103666.91;;;8.42;92.11
71764;BME280;59602;52.142;5.408;2023-02-11T10:45:43;103669.91;;;8.40;91.96
71764;BME280;59602;52.142;5.408;2023-02-11T10:48:38;103667.97;;;8.41;91.83
71764;BME280;59602;52.142;5.408;2023-02-11T10:51:16;103666.34;;;8.40;91.77
71764;BME280;59602;52.142;5.408;2023-02-11T10:53:44;103667.97;;;8.41;91.64
71764;BME280;59602;52.142;5.408;2023-02-11T10:56:22;103664.97;;;8.42;91.45
71764;BME280;59602;52.142;5.408;2023-02-11T10:58:58;103661.16;;;8.43;91.45
71764;BME280;59602;52.142;5.408;2023-02-11T11:01:40;103663.31;;;8.46;91.45
71764;BME280;59602;52.142;5.408;2023-02-11T11:06:56;103665.84;;;8.57;91.21
71764;BME280;59602;52.142;5.408;2023-02-11T11:09:30;103679.03;;;8.63;91.10
71764;BME280;59602;52.142;5.408;2023-02-11T11:12:36;103672.94;;;8.71;90.97
71764;BME280;59602;52.142;5.408;2023-02-11T11:15:21;103684.19;;;8.79;90.54
71764;BME280;59602;52.142;5.408;2023-02-11T11:17:52;103682.00;;;8.81;90.18
71764;BME280;59602;52.142;5.408;2023-02-11T11:20:57;103688.16;;;8.86;90.13
71764;BME280;59602;52.142;5.408;2023-02-11T11:23:25;103687.03;;;8.87;89.81
71764;BME280;59602;52.142;5.408;2023-02-11T11:26:02;103693.28;;;8.88;89.77
71764;BME280;59602;52.142;5.408;2023-02-11T11:28:34;103693.78;;;8.90;89.81
71764;BME280;59602;52.142;5.408;2023-02-11T11:31:04;103699.44;;;8.93;89.55
71764;BME280;59602;52.142;5.408;2023-02-11T11:33:40;103699.63;;;8.97;89.20
71764;BME280;59602;52.142;5.408;2023-02-11T11:36:11;103703.59;;;9.05;89.04
71764;BME280;59602;52.142;5.408;2023-02-11T11:38:44;103705.13;;;9.11;88.54
71764;BME280;59602;52.142;5.408;2023-02-11T11:41:13;103709.13;;;9.13;88.64
71764;BME280;59602;52.142;5.408;2023-02-11T11:43:53;103704.22;;;9.16;88.26
71764;BME280;59602;52.142;5.408;2023-02-11T11:46:26;103703.09;;;9.17;88.29
71764;BME280;59602;52.142;5.408;2023-02-11T11:49:00;103699.88;;;9.14;88.09
71764;BME280;59602;52.142;5.408;2023-02-11T11:51:31;103696.06;;;9.16;87.99
71764;BME280;59602;52.142;5.408;2023-02-11T11:53:59;103683.81;;;9.18;87.92
71764;BME280;59602;52.142;5.408;2023-02-11T11:56:31;103678.38;;;9.18;88.00
71764;BME280;59602;52.142;5.408;2023-02-11T11:59:04;103681.38;;;9.17;87.98
71764;BME280;59602;52.142;5.408;2023-02-11T12:01:54;103679.47;;;9.17;87.92
71764;BME280;59602;52.142;5.408;2023-02-11T12:07:44;103676.69;;;9.22;87.96
71764;BME280;59602;52.142;5.408;2023-02-11T12:13:18;103661.69;;;9.25;87.45
71764;BME280;59602;52.142;5.408;2023-02-11T12:18:36;103664.81;;;9.32;86.99
71764;BME280;59602;52.142;5.408;2023-02-11T12:21:42;103665.50;;;9.38;86.79
71764;BME280;59602;52.142;5.408;2023-02-11T12:24:29;103666.50;;;9.42;86.34
71764;BME280;59602;52.142;5.408;2023-02-11T12:27:05;103674.59;;;9.47;86.43
71764;BME280;59602;52.142;5.408;2023-02-11T12:32:48;103664.41;;;9.52;85.32
71764;BME280;59602;52.142;5.408;2023-02-11T12:35:30;103673.88;;;9.55;85.14
71764;BME280;59602;52.142;5.408;2023-02-11T12:38:09;103663.50;;;9.57;84.82
71764;BME280;59602;52.142;5.408;2023-02-11T12:40:43;103675.88;;;9.63;84.56
71764;BME280;59602;52.142;5.408;2023-02-11T12:43:23;103666.81;;;9.68;84.36
71764;BME280;59602;52.142;5.408;2023-02-11T12:46:21;103674.69;;;9.69;84.25
71764;BME280;59602;52.142;5.408;2023-02-11T12:49:08;103676.47;;;9.74;83.82
71764;BME280;59602;52.142;5.408;2023-02-11T12:51:50;103676.66;;;9.77;83.59
71764;BME280;59602;52.142;5.408;2023-02-11T12:54:26;103670.25;;;9.73;83.20
71764;BME280;59602;52.142;5.408;2023-02-11T12:57:02;103675.97;;;9.72;82.94
71764;BME280;59602;52.142;5.408;2023-02-11T12:59:48;103667.63;;;9.68;83.48
71764;BME280;59602;52.142;5.408;2023-02-11T13:02:32;103673.06;;;9.68;83.01
71764;BME280;59602;52.142;5.408;2023-02-11T13:05:09;103667.31;;;9.70;83.23
71764;BME280;59602;52.142;5.408;2023-02-11T13:07:43;103668.63;;;9.72;83.15
71764;BME280;59602;52.142;5.408;2023-02-11T13:12:42;103675.47;;;9.84;83.19
71764;BME280;59602;52.142;5.408;2023-02-11T13:15:29;103673.75;;;9.88;82.63
71764;BME280;59602;52.142;5.408;2023-02-11T13:18:16;103677.75;;;9.90;82.64
71764;BME280;59602;52.142;5.408;2023-02-11T13:20:53;103667.91;;;9.94;82.93
71764;BME280;59602;52.142;5.408;2023-02-11T13:23:30;103669.69;;;9.99;82.66
71764;BME280;59602;52.142;5.408;2023-02-11T13:26:13;103670.41;;;10.05;82.85
71764;BME280;59602;52.142;5.408;2023-02-11T13:28:53;103666.56;;;10.06;82.34
71764;BME280;59602;52.142;5.408;2023-02-11T13:31:22;103664.13;;;10.04;82.38
71764;BME280;59602;52.142;5.408;2023-02-11T13:33:52;103656.81;;;10.05;82.21
71764;BME280;59602;52.142;5.408;2023-02-11T13:36:22;103657.59;;;10.05;82.11
71764;BME280;59602;52.142;5.408;2023-02-11T13:38:53;103658.41;;;10.06;81.93
71764;BME280;59602;52.142;5.408;2023-02-11T13:41:25;103649.75;;;10.04;81.81
71764;BME280;59602;52.142;5.408;2023-02-11T13:44:02;103649.53;;;10.00;81.69
71764;BME280;59602;52.142;5.408;2023-02-11T13:46:47;103656.22;;;9.94;82.12
71764;BME280;59602;52.142;5.408;2023-02-11T13:49:38;103661.03;;;9.97;82.35
71764;BME280;59602;52.142;5.408;2023-02-11T13:52:21;103660.13;;;10.02;82.43
71764;BME280;59602;52.142;5.408;2023-02-11T13:54:50;103660.34;;;10.05;82.06
71764;BME280;59602;52.142;5.408;2023-02-11T13:59:47;103652.09;;;9.96;81.76